Wanborough, United Kingdom
Current Conditions -  °F | °C
As of 8:01 PM on Thursday 18 Dec 2014 (Local Time) from EGVA Reporting Station
Light Rain Light Rain  
Wind Chill: 54°   Ceiling: 600
Heat Index: 54°   Visibility: 6mi
Dew Point: 52°   Wind: 20mph
Humidity: 94%   Direction: 250°WSW
Pressure: 29.8"   Gusts: 35mph
Location:  51.54°N, 1.7°W
Report Text: EGVA 182001Z AUTO 25017G30KT 9999 -RA OVC006 12/11 A2980 RMK AO2 RAB1913DZB1927E1939
Loading
Personal Weather Stations






























Interactive Weather Map New forecast layout! Learn more

10-Day Weather Forecast

Advertisements
Track Severe Weather on mobile